sensor_id;sensor_type;location;lat;lon;timestamp;temperature;humidity
3246;DHT22;1635;48.000;10.582;2022-12-04T00:00:26;20.40;45.20
3246;DHT22;1635;48.000;10.582;2022-12-04T00:02:53;20.40;45.90
3246;DHT22;1635;48.000;10.582;2022-12-04T00:05:19;20.40;45.40
3246;DHT22;1635;48.000;10.582;2022-12-04T00:07:46;20.40;45.60
3246;DHT22;1635;48.000;10.582;2022-12-04T00:10:13;20.50;45.40
3246;DHT22;1635;48.000;10.582;2022-12-04T00:12:40;20.40;45.40
3246;DHT22;1635;48.000;10.582;2022-12-04T00:15:08;20.40;45.60
3246;DHT22;1635;48.000;10.582;2022-12-04T00:17:34;20.40;45.80
3246;DHT22;1635;48.000;10.582;2022-12-04T00:20:01;20.40;45.60
3246;DHT22;1635;48.000;10.582;2022-12-04T00:22:29;20.40;45.80
3246;DHT22;1635;48.000;10.582;2022-12-04T00:24:56;20.40;45.00
3246;DHT22;1635;48.000;10.582;2022-12-04T00:27:22;20.40;45.70
3246;DHT22;1635;48.000;10.582;2022-12-04T00:29:49;20.40;45.50
3246;DHT22;1635;48.000;10.582;2022-12-04T00:32:16;20.30;45.50
3246;DHT22;1635;48.000;10.582;2022-12-04T00:34:43;20.30;45.50
3246;DHT22;1635;48.000;10.582;2022-12-04T00:37:10;20.30;45.50
3246;DHT22;1635;48.000;10.582;2022-12-04T00:39:38;20.40;45.30
3246;DHT22;1635;48.000;10.582;2022-12-04T00:42:05;20.30;45.40
3246;DHT22;1635;48.000;10.582;2022-12-04T00:44:32;20.30;45.40
3246;DHT22;1635;48.000;10.582;2022-12-04T00:46:59;20.30;45.80
3246;DHT22;1635;48.000;10.582;2022-12-04T00:49:26;20.30;45.10
3246;DHT22;1635;48.000;10.582;2022-12-04T00:51:52;20.40;45.50
3246;DHT22;1635;48.000;10.582;2022-12-04T00:54:19;20.40;45.80
3246;DHT22;1635;48.000;10.582;2022-12-04T00:56:46;20.30;45.40
3246;DHT22;1635;48.000;10.582;2022-12-04T00:59:13;20.40;45.80
3246;DHT22;1635;48.000;10.582;2022-12-04T01:01:40;20.30;45.70
3246;DHT22;1635;48.000;10.582;2022-12-04T01:04:07;20.30;45.20
3246;DHT22;1635;48.000;10.582;2022-12-04T01:06:40;20.40;45.40
3246;DHT22;1635;48.000;10.582;2022-12-04T01:09:07;20.30;45.30
3246;DHT22;1635;48.000;10.582;2022-12-04T01:11:40;20.30;45.40
3246;DHT22;1635;48.000;10.582;2022-12-04T01:14:06;20.40;45.40
3246;DHT22;1635;48.000;10.582;2022-12-04T01:16:36;20.30;45.20
3246;DHT22;1635;48.000;10.582;2022-12-04T01:19:06;20.30;45.40
3246;DHT22;1635;48.000;10.582;2022-12-04T01:21:33;20.40;45.20
3246;DHT22;1635;48.000;10.582;2022-12-04T01:24:00;20.30;44.90
3246;DHT22;1635;48.000;10.582;2022-12-04T01:26:30;20.30;45.10
3246;DHT22;1635;48.000;10.582;2022-12-04T01:28:57;20.30;45.10
3246;DHT22;1635;48.000;10.582;2022-12-04T01:31:24;20.40;45.50
3246;DHT22;1635;48.000;10.582;2022-12-04T01:33:51;20.20;45.30
3246;DHT22;1635;48.000;10.582;2022-12-04T01:36:24;20.30;45.30
3246;DHT22;1635;48.000;10.582;2022-12-04T01:38:51;20.30;45.60
3246;DHT22;1635;48.000;10.582;2022-12-04T01:41:22;20.30;45.40
3246;DHT22;1635;48.000;10.582;2022-12-04T01:44:20;20.30;45.40
3246;DHT22;1635;48.000;10.582;2022-12-04T01:47:08;20.20;45.60
3246;DHT22;1635;48.000;10.582;2022-12-04T01:49:42;20.30;45.30
3246;DHT22;1635;48.000;10.582;2022-12-04T01:52:18;20.30;45.20
3246;DHT22;1635;48.000;10.582;2022-12-04T01:54:50;20.30;45.10
3246;DHT22;1635;48.000;10.582;2022-12-04T01:57:20;20.30;45.50
3246;DHT22;1635;48.000;10.582;2022-12-04T01:59:54;20.30;45.00
3246;DHT22;1635;48.000;10.582;2022-12-04T02:02:26;20.30;45.10
3246;DHT22;1635;48.000;10.582;2022-12-04T02:04:55;20.30;44.80
3246;DHT22;1635;48.000;10.582;2022-12-04T02:07:22;20.30;45.10
3246;DHT22;1635;48.000;10.582;2022-12-04T02:09:48;20.30;45.30
3246;DHT22;1635;48.000;10.582;2022-12-04T02:12:48;20.20;45.10
3246;DHT22;1635;48.000;10.582;2022-12-04T02:15:36;20.30;45.10
3246;DHT22;1635;48.000;10.582;2022-12-04T02:18:27;20.30;45.10
3246;DHT22;1635;48.000;10.582;2022-12-04T02:21:16;20.30;45.10
3246;DHT22;1635;48.000;10.582;2022-12-04T02:27:15;20.30;45.30
3246;DHT22;1635;48.000;10.582;2022-12-04T02:30:02;20.20;45.40
3246;DHT22;1635;48.000;10.582;2022-12-04T02:35:26;20.30;45.50
3246;DHT22;1635;48.000;10.582;2022-12-04T02:38:09;20.30;45.50
3246;DHT22;1635;48.000;10.582;2022-12-04T02:40:53;20.30;45.00
3246;DHT22;1635;48.000;10.582;2022-12-04T02:43:32;20.30;45.10
3246;DHT22;1635;48.000;10.582;2022-12-04T02:46:14;20.30;45.40
3246;DHT22;1635;48.000;10.582;2022-12-04T02:48:43;20.30;45.40
3246;DHT22;1635;48.000;10.582;2022-12-04T02:51:13;20.20;44.90
3246;DHT22;1635;48.000;10.582;2022-12-04T02:53:55;20.30;45.50
3246;DHT22;1635;48.000;10.582;2022-12-04T02:56:27;20.30;45.20
3246;DHT22;1635;48.000;10.582;2022-12-04T02:58:56;20.30;45.10
3246;DHT22;1635;48.000;10.582;2022-12-04T03:01:32;20.30;45.30
3246;DHT22;1635;48.000;10.582;2022-12-04T03:04:18;20.20;44.90
3246;DHT22;1635;48.000;10.582;2022-12-04T03:06:50;20.20;45.20
3246;DHT22;1635;48.000;10.582;2022-12-04T03:09:38;20.30;44.90
3246;DHT22;1635;48.000;10.582;2022-12-04T03:12:36;20.30;44.90
3246;DHT22;1635;48.000;10.582;2022-12-04T03:15:28;20.20;45.20
3246;DHT22;1635;48.000;10.582;2022-12-04T03:18:33;20.30;45.30
3246;DHT22;1635;48.000;10.582;2022-12-04T03:21:20;20.20;45.10
3246;DHT22;1635;48.000;10.582;2022-12-04T03:24:26;20.20;44.80
3246;DHT22;1635;48.000;10.582;2022-12-04T03:30:12;20.20;45.20
3246;DHT22;1635;48.000;10.582;2022-12-04T03:32:52;20.20;45.10
3246;DHT22;1635;48.000;10.582;2022-12-04T03:44:11;20.30;45.40
3246;DHT22;1635;48.000;10.582;2022-12-04T03:47:05;20.20;45.10
3246;DHT22;1635;48.000;10.582;2022-12-04T03:52:47;20.20;45.20
3246;DHT22;1635;48.000;10.582;2022-12-04T03:58:08;20.20;45.20
3246;DHT22;1635;48.000;10.582;2022-12-04T04:00:39;20.20;44.80
3246;DHT22;1635;48.000;10.582;2022-12-04T04:03:17;20.20;45.00
3246;DHT22;1635;48.000;10.582;2022-12-04T04:05:47;20.20;45.40
3246;DHT22;1635;48.000;10.582;2022-12-04T04:08:18;20.20;44.60
3246;DHT22;1635;48.000;10.582;2022-12-04T04:10:56;20.20;45.00
3246;DHT22;1635;48.000;10.582;2022-12-04T04:13:29;20.20;45.20
3246;DHT22;1635;48.000;10.582;2022-12-04T04:16:18;20.20;44.40
3246;DHT22;1635;48.000;10.582;2022-12-04T04:19:06;20.20;45.20
3246;DHT22;1635;48.000;10.582;2022-12-04T04:21:53;20.20;45.10
3246;DHT22;1635;48.000;10.582;2022-12-04T04:24:54;20.20;45.10
3246;DHT22;1635;48.000;10.582;2022-12-04T04:27:21;20.10;45.20
3246;DHT22;1635;48.000;10.582;2022-12-04T04:29:50;20.20;45.30
3246;DHT22;1635;48.000;10.582;2022-12-04T04:32:34;20.20;45.40
3246;DHT22;1635;48.000;10.582;2022-12-04T04:35:21;20.20;44.70
3246;DHT22;1635;48.000;10.582;2022-12-04T04:38:23;20.20;45.30
3246;DHT22;1635;48.000;10.582;2022-12-04T04:41:20;20.20;45.50
3246;DHT22;1635;48.000;10.582;2022-12-04T04:43:56;20.20;45.20
3246;DHT22;1635;48.000;10.582;2022-12-04T04:46:34;20.20;44.80
3246;DHT22;1635;48.000;10.582;2022-12-04T04:49:04;20.10;44.50
3246;DHT22;1635;48.000;10.582;2022-12-04T04:51:33;20.20;44.80
3246;DHT22;1635;48.000;10.582;2022-12-04T04:54:04;20.20;44.60
3246;DHT22;1635;48.000;10.582;2022-12-04T04:56:39;20.20;44.60
3246;DHT22;1635;48.000;10.582;2022-12-04T04:59:06;20.20;44.80
3246;DHT22;1635;48.000;10.582;2022-12-04T05:01:34;20.20;44.90
3246;DHT22;1635;48.000;10.582;2022-12-04T05:04:02;20.20;45.00
3246;DHT22;1635;48.000;10.582;2022-12-04T05:06:30;20.20;45.00
3246;DHT22;1635;48.000;10.582;2022-12-04T05:08:57;20.20;45.10
3246;DHT22;1635;48.000;10.582;2022-12-04T05:11:24;20.20;44.70
3246;DHT22;1635;48.000;10.582;2022-12-04T05:13:50;20.20;44.90
3246;DHT22;1635;48.000;10.582;2022-12-04T05:16:17;20.20;44.70
3246;DHT22;1635;48.000;10.582;2022-12-04T05:18:44;20.20;44.50
3246;DHT22;1635;48.000;10.582;2022-12-04T05:21:32;20.20;45.00
3246;DHT22;1635;48.000;10.582;2022-12-04T05:23:59;20.20;45.00
3246;DHT22;1635;48.000;10.582;2022-12-04T05:26:28;20.20;44.70
3246;DHT22;1635;48.000;10.582;2022-12-04T05:28:55;20.10;45.10
3246;DHT22;1635;48.000;10.582;2022-12-04T05:31:21;20.10;44.50
3246;DHT22;1635;48.000;10.582;2022-12-04T05:33:49;20.10;44.70
3246;DHT22;1635;48.000;10.582;2022-12-04T05:36:16;20.10;44.80
3246;DHT22;1635;48.000;10.582;2022-12-04T05:38:43;20.20;44.80
3246;DHT22;1635;48.000;10.582;2022-12-04T05:41:10;20.10;44.40
3246;DHT22;1635;48.000;10.582;2022-12-04T05:43:38;20.10;44.90
3246;DHT22;1635;48.000;10.582;2022-12-04T05:46:06;20.20;44.60
3246;DHT22;1635;48.000;10.582;2022-12-04T05:48:34;20.20;44.70
3246;DHT22;1635;48.000;10.582;2022-12-04T05:51:08;20.10;44.70
3246;DHT22;1635;48.000;10.582;2022-12-04T05:53:36;20.10;45.00
3246;DHT22;1635;48.000;10.582;2022-12-04T05:56:04;20.20;45.00
3246;DHT22;1635;48.000;10.582;2022-12-04T05:58:34;20.10;44.90
3246;DHT22;1635;48.000;10.582;2022-12-04T06:01:25;20.10;45.30
3246;DHT22;1635;48.000;10.582;2022-12-04T06:03:51;20.10;45.10
3246;DHT22;1635;48.000;10.582;2022-12-04T06:06:21;20.20;45.20
3246;DHT22;1635;48.000;10.582;2022-12-04T06:08:50;20.20;44.80
3246;DHT22;1635;48.000;10.582;2022-12-04T06:11:21;20.20;44.70
3246;DHT22;1635;48.000;10.582;2022-12-04T06:13:46;20.20;45.00
3246;DHT22;1635;48.000;10.582;2022-12-04T06:16:22;20.10;45.10
3246;DHT22;1635;48.000;10.582;2022-12-04T06:18:54;20.10;44.70
3246;DHT22;1635;48.000;10.582;2022-12-04T06:21:23;20.20;44.90
3246;DHT22;1635;48.000;10.582;2022-12-04T06:23:51;20.10;45.10
3246;DHT22;1635;48.000;10.582;2022-12-04T06:26:18;20.20;44.70
3246;DHT22;1635;48.000;10.582;2022-12-04T06:28:45;20.10;44.60
3246;DHT22;1635;48.000;10.582;2022-12-04T06:31:14;20.20;44.80
3246;DHT22;1635;48.000;10.582;2022-12-04T06:33:41;20.20;45.10
3246;DHT22;1635;48.000;10.582;2022-12-04T06:36:14;20.10;44.80
3246;DHT22;1635;48.000;10.582;2022-12-04T06:38:41;20.10;45.10
3246;DHT22;1635;48.000;10.582;2022-12-04T06:41:11;20.10;44.50
3246;DHT22;1635;48.000;10.582;2022-12-04T06:43:38;20.10;44.50
3246;DHT22;1635;48.000;10.582;2022-12-04T06:46:08;20.10;44.50
3246;DHT22;1635;48.000;10.582;2022-12-04T06:48:36;20.10;44.90
3246;DHT22;1635;48.000;10.582;2022-12-04T06:51:08;20.10;44.80
3246;DHT22;1635;48.000;10.582;2022-12-04T06:53:37;20.10;44.30
3246;DHT22;1635;48.000;10.582;2022-12-04T06:56:06;20.10;44.40
3246;DHT22;1635;48.000;10.582;2022-12-04T06:58:34;20.10;44.70
3246;DHT22;1635;48.000;10.582;2022-12-04T07:01:13;20.10;44.60
3246;DHT22;1635;48.000;10.582;2022-12-04T07:03:40;20.10;44.50
3246;DHT22;1635;48.000;10.582;2022-12-04T07:06:28;20.00;44.40
3246;DHT22;1635;48.000;10.582;2022-12-04T07:09:04;20.10;44.90
3246;DHT22;1635;48.000;10.582;2022-12-04T07:11:32;20.10;44.90
3246;DHT22;1635;48.000;10.582;2022-12-04T07:13:58;20.10;45.20
3246;DHT22;1635;48.000;10.582;2022-12-04T07:16:25;20.10;44.70
3246;DHT22;1635;48.000;10.582;2022-12-04T07:18:52;20.10;44.30
3246;DHT22;1635;48.000;10.582;2022-12-04T07:21:22;20.10;44.70
3246;DHT22;1635;48.000;10.582;2022-12-04T07:23:51;20.10;44.80
3246;DHT22;1635;48.000;10.582;2022-12-04T07:26:19;20.10;44.70
3246;DHT22;1635;48.000;10.582;2022-12-04T07:28:46;20.10;44.50
3246;DHT22;1635;48.000;10.582;2022-12-04T07:31:16;20.10;44.50
3246;DHT22;1635;48.000;10.582;2022-12-04T07:33:44;20.10;44.40
3246;DHT22;1635;48.000;10.582;2022-12-04T07:36:14;20.10;44.40
3246;DHT22;1635;48.000;10.582;2022-12-04T07:38:42;20.10;45.10
3246;DHT22;1635;48.000;10.582;2022-12-04T07:41:10;20.00;45.00
3246;DHT22;1635;48.000;10.582;2022-12-04T07:43:37;20.00;44.60
3246;DHT22;1635;48.000;10.582;2022-12-04T07:46:15;20.10;44.50
3246;DHT22;1635;48.000;10.582;2022-12-04T07:48:43;20.10;44.50
3246;DHT22;1635;48.000;10.582;2022-12-04T07:51:12;20.10;44.60
3246;DHT22;1635;48.000;10.582;2022-12-04T07:53:40;20.10;44.80
3246;DHT22;1635;48.000;10.582;2022-12-04T07:56:10;20.20;44.60
3246;DHT22;1635;48.000;10.582;2022-12-04T07:58:37;20.10;44.60
3246;DHT22;1635;48.000;10.582;2022-12-04T08:01:11;20.10;44.60
3246;DHT22;1635;48.000;10.582;2022-12-04T08:03:39;20.00;44.50
3246;DHT22;1635;48.000;10.582;2022-12-04T08:06:06;20.00;44.70
3246;DHT22;1635;48.000;10.582;2022-12-04T08:08:34;20.00;44.60
3246;DHT22;1635;48.000;10.582;2022-12-04T08:11:08;20.10;44.60
3246;DHT22;1635;48.000;10.582;2022-12-04T08:13:34;20.10;44.80
3246;DHT22;1635;48.000;10.582;2022-12-04T08:16:06;20.10;45.30
3246;DHT22;1635;48.000;10.582;2022-12-04T08:18:33;20.10;44.30
3246;DHT22;1635;48.000;10.582;2022-12-04T08:21:10;20.10;44.70
3246;DHT22;1635;48.000;10.582;2022-12-04T08:23:39;20.00;44.90
3246;DHT22;1635;48.000;10.582;2022-12-04T08:26:08;20.00;44.70
3246;DHT22;1635;48.000;10.582;2022-12-04T08:28:36;20.00;44.90
3246;DHT22;1635;48.000;10.582;2022-12-04T08:33:37;20.10;44.60
3246;DHT22;1635;48.000;10.582;2022-12-04T08:36:09;20.00;44.70
3246;DHT22;1635;48.000;10.582;2022-12-04T08:38:37;20.00;44.40
3246;DHT22;1635;48.000;10.582;2022-12-04T08:41:06;20.00;44.50
3246;DHT22;1635;48.000;10.582;2022-12-04T08:43:33;20.00;44.70
3246;DHT22;1635;48.000;10.582;2022-12-04T08:46:03;20.00;44.60
3246;DHT22;1635;48.000;10.582;2022-12-04T08:48:31;20.20;41.90
3246;DHT22;1635;48.000;10.582;2022-12-04T08:50:59;20.00;38.60
3246;DHT22;1635;48.000;10.582;2022-12-04T08:53:26;19.70;35.60
3246;DHT22;1635;48.000;10.582;2022-12-04T08:55:53;19.30;35.20
3246;DHT22;1635;48.000;10.582;2022-12-04T08:58:20;19.00;35.40
3246;DHT22;1635;48.000;10.582;2022-12-04T09:00:47;18.70;35.30
3246;DHT22;1635;48.000;10.582;2022-12-04T09:03:16;18.50;35.60
3246;DHT22;1635;48.000;10.582;2022-12-04T09:05:44;18.50;36.70
3246;DHT22;1635;48.000;10.582;2022-12-04T09:08:14;18.50;37.50
3246;DHT22;1635;48.000;10.582;2022-12-04T09:10:41;18.60;37.80
3246;DHT22;1635;48.000;10.582;2022-12-04T09:13:08;18.80;38.90
3246;DHT22;1635;48.000;10.582;2022-12-04T09:15:38;19.00;39.20
3246;DHT22;1635;48.000;10.582;2022-12-04T09:18:04;19.20;39.30
3246;DHT22;1635;48.000;10.582;2022-12-04T09:20:31;19.30;39.70
3246;DHT22;1635;48.000;10.582;2022-12-04T09:22:58;19.50;40.10
3246;DHT22;1635;48.000;10.582;2022-12-04T09:25:25;19.40;40.30
3246;DHT22;1635;48.000;10.582;2022-12-04T09:27:52;19.60;40.50
3246;DHT22;1635;48.000;10.582;2022-12-04T09:30:19;19.70;40.70
3246;DHT22;1635;48.000;10.582;2022-12-04T09:32:46;19.70;40.90
3246;DHT22;1635;48.000;10.582;2022-12-04T09:35:13;19.80;41.00
3246;DHT22;1635;48.000;10.582;2022-12-04T09:37:40;19.90;41.30
3246;DHT22;1635;48.000;10.582;2022-12-04T09:40:07;19.90;41.20
3246;DHT22;1635;48.000;10.582;2022-12-04T09:42:46;20.00;41.60
3246;DHT22;1635;48.000;10.582;2022-12-04T09:45:21;20.10;41.50
3246;DHT22;1635;48.000;10.582;2022-12-04T09:47:56;20.10;41.80
3246;DHT22;1635;48.000;10.582;2022-12-04T09:50:33;20.10;42.00
3246;DHT22;1635;48.000;10.582;2022-12-04T09:53:19;20.10;41.60
3246;DHT22;1635;48.000;10.582;2022-12-04T09:56:26;20.10;42.10
3246;DHT22;1635;48.000;10.582;2022-12-04T09:59:02;20.20;41.90
3246;DHT22;1635;48.000;10.582;2022-12-04T10:01:47;20.20;42.00
3246;DHT22;1635;48.000;10.582;2022-12-04T10:04:15;20.20;42.00
3246;DHT22;1635;48.000;10.582;2022-12-04T10:07:17;20.20;42.00
3246;DHT22;1635;48.000;10.582;2022-12-04T10:09:49;20.30;42.30
3246;DHT22;1635;48.000;10.582;2022-12-04T10:12:32;20.30;41.90
3246;DHT22;1635;48.000;10.582;2022-12-04T10:15:35;20.30;42.30
3246;DHT22;1635;48.000;10.582;2022-12-04T10:24:04;20.30;42.40
3246;DHT22;1635;48.000;10.582;2022-12-04T10:26:43;20.30;42.40
3246;DHT22;1635;48.000;10.582;2022-12-04T10:29:30;20.40;42.30
3246;DHT22;1635;48.000;10.582;2022-12-04T10:32:15;20.30;42.10
3246;DHT22;1635;48.000;10.582;2022-12-04T10:34:43;20.40;42.20
3246;DHT22;1635;48.000;10.582;2022-12-04T10:37:12;20.30;42.30
3246;DHT22;1635;48.000;10.582;2022-12-04T10:40:06;20.40;42.40
3246;DHT22;1635;48.000;10.582;2022-12-04T10:43:05;20.30;41.60
3246;DHT22;1635;48.000;10.582;2022-12-04T10:45:36;20.40;42.00
3246;DHT22;1635;48.000;10.582;2022-12-04T10:48:04;20.40;42.30
3246;DHT22;1635;48.000;10.582;2022-12-04T10:50:33;20.40;42.10
3246;DHT22;1635;48.000;10.582;2022-12-04T10:53:00;20.40;41.90
3246;DHT22;1635;48.000;10.582;2022-12-04T10:55:29;20.30;41.80
3246;DHT22;1635;48.000;10.582;2022-12-04T10:57:57;20.40;42.40
3246;DHT22;1635;48.000;10.582;2022-12-04T11:00:32;20.40;42.10
3246;DHT22;1635;48.000;10.582;2022-12-04T11:03:03;20.30;42.20
3246;DHT22;1635;48.000;10.582;2022-12-04T11:06:03;20.30;42.40
3246;DHT22;1635;48.000;10.582;2022-12-04T11:08:41;20.40;42.50
3246;DHT22;1635;48.000;10.582;2022-12-04T11:11:14;20.30;42.20
3246;DHT22;1635;48.000;10.582;2022-12-04T11:13:40;20.50;42.40
3246;DHT22;1635;48.000;10.582;2022-12-04T11:16:09;20.70;42.30
3246;DHT22;1635;48.000;10.582;2022-12-04T11:18:54;20.90;42.40
3246;DHT22;1635;48.000;10.582;2022-12-04T11:21:27;20.80;41.60
3246;DHT22;1635;48.000;10.582;2022-12-04T11:23:55;20.90;41.80
3246;DHT22;1635;48.000;10.582;2022-12-04T11:26:36;20.80;41.70
3246;DHT22;1635;48.000;10.582;2022-12-04T11:29:04;20.80;41.60
3246;DHT22;1635;48.000;10.582;2022-12-04T11:31:32;20.60;42.20
3246;DHT22;1635;48.000;10.582;2022-12-04T11:34:05;20.50;42.10
3246;DHT22;1635;48.000;10.582;2022-12-04T11:36:40;20.50;42.50
3246;DHT22;1635;48.000;10.582;2022-12-04T11:41:41;20.50;42.80
3246;DHT22;1635;48.000;10.582;2022-12-04T11:44:29;20.60;43.10
3246;DHT22;1635;48.000;10.582;2022-12-04T11:46:58;20.70;42.60
3246;DHT22;1635;48.000;10.582;2022-12-04T11:49:29;20.60;42.80
3246;DHT22;1635;48.000;10.582;2022-12-04T11:52:34;20.50;43.70
3246;DHT22;1635;48.000;10.582;2022-12-04T11:55:18;20.50;43.90
3246;DHT22;1635;48.000;10.582;2022-12-04T12:00:41;20.50;43.80
3246;DHT22;1635;48.000;10.582;2022-12-04T12:03:33;20.70;44.00
3246;DHT22;1635;48.000;10.582;2022-12-04T12:06:21;20.70;43.20
3246;DHT22;1635;48.000;10.582;2022-12-04T12:09:22;20.80;42.70
3246;DHT22;1635;48.000;10.582;2022-12-04T12:12:13;20.80;43.30
3246;DHT22;1635;48.000;10.582;2022-12-04T12:17:31;20.70;43.80
3246;DHT22;1635;48.000;10.582;2022-12-04T12:20:30;20.50;43.90
3246;DHT22;1635;48.000;10.582;2022-12-04T12:23:20;20.40;44.10
3246;DHT22;1635;48.000;10.582;2022-12-04T12:26:13;20.30;43.60
3246;DHT22;1635;48.000;10.582;2022-12-04T12:29:02;20.30;44.10
3246;DHT22;1635;48.000;10.582;2022-12-04T12:32:08;20.20;43.90
3246;DHT22;1635;48.000;10.582;2022-12-04T12:34:41;20.20;44.00
3246;DHT22;1635;48.000;10.582;2022-12-04T12:40:34;20.10;44.20
3246;DHT22;1635;48.000;10.582;2022-12-04T12:43:30;20.10;44.00
3246;DHT22;1635;48.000;10.582;2022-12-04T12:46:36;20.10;44.20
3246;DHT22;1635;48.000;10.582;2022-12-04T12:49:33;20.00;44.40
3246;DHT22;1635;48.000;10.582;2022-12-04T12:52:11;20.10;44.70
3246;DHT22;1635;48.000;10.582;2022-12-04T12:57:29;20.10;44.20
3246;DHT22;1635;48.000;10.582;2022-12-04T13:00:20;20.10;44.60
3246;DHT22;1635;48.000;10.582;2022-12-04T13:03:11;20.00;44.90
3246;DHT22;1635;48.000;10.582;2022-12-04T13:05:46;19.90;44.60
3246;DHT22;1635;48.000;10.582;2022-12-04T13:08:51;19.90;44.30
3246;DHT22;1635;48.000;10.582;2022-12-04T13:11:21;19.90;44.50
3246;DHT22;1635;48.000;10.582;2022-12-04T13:13:51;19.90;44.20
3246;DHT22;1635;48.000;10.582;2022-12-04T13:19:06;20.20;44.00
3246;DHT22;1635;48.000;10.582;2022-12-04T13:42:26;20.30;44.00
3246;DHT22;1635;48.000;10.582;2022-12-04T13:45:08;20.30;43.40
3246;DHT22;1635;48.000;10.582;2022-12-04T13:47:36;20.30;43.60
3246;DHT22;1635;48.000;10.582;2022-12-04T13:52:45;20.30;44.10
3246;DHT22;1635;48.000;10.582;2022-12-04T13:55:35;20.30;44.00
3246;DHT22;1635;48.000;10.582;2022-12-04T13:58:27;20.30;43.30
3246;DHT22;1635;48.000;10.582;2022-12-04T14:01:07;20.20;43.70
3246;DHT22;1635;48.000;10.582;2022-12-04T14:03:50;20.30;43.60
3246;DHT22;1635;48.000;10.582;2022-12-04T14:06:24;20.30;43.60
3246;DHT22;1635;48.000;10.582;2022-12-04T14:08:59;20.40;43.70
3246;DHT22;1635;48.000;10.582;2022-12-04T14:11:27;20.30;43.60
3246;DHT22;1635;48.000;10.582;2022-12-04T14:13:56;20.30;44.10
3246;DHT22;1635;48.000;10.582;2022-12-04T14:16:38;20.30;43.60
3246;DHT22;1635;48.000;10.582;2022-12-04T14:19:06;20.30;43.70
3246;DHT22;1635;48.000;10.582;2022-12-04T14:21:44;20.30;43.90
3246;DHT22;1635;48.000;10.582;2022-12-04T14:26:58;20.30;43.20
3246;DHT22;1635;48.000;10.582;2022-12-04T14:29:34;20.30;43.40
3246;DHT22;1635;48.000;10.582;2022-12-04T14:32:14;20.30;43.60
3246;DHT22;1635;48.000;10.582;2022-12-04T14:34:42;20.30;43.40
3246;DHT22;1635;48.000;10.582;2022-12-04T14:39:54;20.30;43.40
3246;DHT22;1635;48.000;10.582;2022-12-04T14:42:26;20.20;43.80
3246;DHT22;1635;48.000;10.582;2022-12-04T14:44:59;20.30;43.50
3246;DHT22;1635;48.000;10.582;2022-12-04T14:53:33;20.20;43.80
3246;DHT22;1635;48.000;10.582;2022-12-04T14:58:46;20.20;43.10
3246;DHT22;1635;48.000;10.582;2022-12-04T15:01:36;20.30;43.50
3246;DHT22;1635;48.000;10.582;2022-12-04T15:04:28;20.30;43.50
3246;DHT22;1635;48.000;10.582;2022-12-04T15:06:57;20.30;43.30
3246;DHT22;1635;48.000;10.582;2022-12-04T15:09:24;20.30;43.00
3246;DHT22;1635;48.000;10.582;2022-12-04T15:12:22;20.30;43.30
3246;DHT22;1635;48.000;10.582;2022-12-04T15:15:14;20.30;43.20
3246;DHT22;1635;48.000;10.582;2022-12-04T15:17:43;20.30;43.40
3246;DHT22;1635;48.000;10.582;2022-12-04T15:20:17;20.30;43.50
3246;DHT22;1635;48.000;10.582;2022-12-04T15:22:46;20.30;43.70
3246;DHT22;1635;48.000;10.582;2022-12-04T15:25:25;20.30;43.90
3246;DHT22;1635;48.000;10.582;2022-12-04T15:28:02;20.30;43.30
3246;DHT22;1635;48.000;10.582;2022-12-04T15:30:32;20.20;43.20
3246;DHT22;1635;48.000;10.582;2022-12-04T15:33:00;20.30;44.00
3246;DHT22;1635;48.000;10.582;2022-12-04T15:35:31;20.20;44.70
3246;DHT22;1635;48.000;10.582;2022-12-04T15:37:58;20.20;45.10
3246;DHT22;1635;48.000;10.582;2022-12-04T15:40:27;20.10;45.10
3246;DHT22;1635;48.000;10.582;2022-12-04T15:43:10;19.90;45.70
3246;DHT22;1635;48.000;10.582;2022-12-04T15:45:39;20.00;44.90
3246;DHT22;1635;48.000;10.582;2022-12-04T15:48:08;20.00;44.70
3246;DHT22;1635;48.000;10.582;2022-12-04T15:50:35;20.10;44.30
3246;DHT22;1635;48.000;10.582;2022-12-04T15:53:24;20.20;44.50
3246;DHT22;1635;48.000;10.582;2022-12-04T15:55:55;20.20;44.10
3246;DHT22;1635;48.000;10.582;2022-12-04T15:58:35;20.20;43.80
3246;DHT22;1635;48.000;10.582;2022-12-04T16:01:11;20.20;44.40
3246;DHT22;1635;48.000;10.582;2022-12-04T16:03:47;20.20;44.00
3246;DHT22;1635;48.000;10.582;2022-12-04T16:08:58;20.20;44.10
3246;DHT22;1635;48.000;10.582;2022-12-04T16:11:31;20.20;43.90
3246;DHT22;1635;48.000;10.582;2022-12-04T16:14:20;20.20;43.70
3246;DHT22;1635;48.000;10.582;2022-12-04T16:16:50;20.20;44.00
3246;DHT22;1635;48.000;10.582;2022-12-04T16:19:39;20.20;43.70
3246;DHT22;1635;48.000;10.582;2022-12-04T16:22:19;20.20;43.90
3246;DHT22;1635;48.000;10.582;2022-12-04T16:24:46;20.20;44.00
3246;DHT22;1635;48.000;10.582;2022-12-04T16:27:16;20.20;43.70
3246;DHT22;1635;48.000;10.582;2022-12-04T16:29:45;20.20;43.70
3246;DHT22;1635;48.000;10.582;2022-12-04T16:32:15;20.30;43.90
3246;DHT22;1635;48.000;10.582;2022-12-04T16:34:43;20.30;43.50
3246;DHT22;1635;48.000;10.582;2022-12-04T16:37:15;20.20;43.90
3246;DHT22;1635;48.000;10.582;2022-12-04T16:39:42;20.20;43.90
3246;DHT22;1635;48.000;10.582;2022-12-04T16:42:23;20.20;43.30
3246;DHT22;1635;48.000;10.582;2022-12-04T16:44:50;20.20;43.90
3246;DHT22;1635;48.000;10.582;2022-12-04T16:47:18;20.20;43.90
3246;DHT22;1635;48.000;10.582;2022-12-04T16:49:47;20.20;43.80
3246;DHT22;1635;48.000;10.582;2022-12-04T16:52:14;20.20;43.30
3246;DHT22;1635;48.000;10.582;2022-12-04T16:54:41;20.20;44.20
3246;DHT22;1635;48.000;10.582;2022-12-04T16:57:09;20.10;44.40
3246;DHT22;1635;48.000;10.582;2022-12-04T16:59:35;20.10;44.60
3246;DHT22;1635;48.000;10.582;2022-12-04T17:02:10;20.10;44.20
3246;DHT22;1635;48.000;10.582;2022-12-04T17:04:38;20.10;44.70
3246;DHT22;1635;48.000;10.582;2022-12-04T17:07:05;20.10;44.70
3246;DHT22;1635;48.000;10.582;2022-12-04T17:09:32;20.10;44.90
3246;DHT22;1635;48.000;10.582;2022-12-04T17:11:59;20.10;44.70
3246;DHT22;1635;48.000;10.582;2022-12-04T17:14:24;20.20;45.30
3246;DHT22;1635;48.000;10.582;2022-12-04T17:16:51;20.50;44.90
3246;DHT22;1635;48.000;10.582;2022-12-04T17:19:20;20.70;45.10
3246;DHT22;1635;48.000;10.582;2022-12-04T17:21:47;20.70;45.00
3246;DHT22;1635;48.000;10.582;2022-12-04T17:24:14;20.70;44.70
3246;DHT22;1635;48.000;10.582;2022-12-04T17:26:41;20.60;45.40
3246;DHT22;1635;48.000;10.582;2022-12-04T17:29:08;20.50;45.40
3246;DHT22;1635;48.000;10.582;2022-12-04T17:31:35;20.50;46.00
3246;DHT22;1635;48.000;10.582;2022-12-04T17:34:02;20.40;46.80
3246;DHT22;1635;48.000;10.582;2022-12-04T17:36:29;20.40;47.00
3246;DHT22;1635;48.000;10.582;2022-12-04T17:38:58;20.30;47.80
3246;DHT22;1635;48.000;10.582;2022-12-04T17:41:25;20.30;46.70
3246;DHT22;1635;48.000;10.582;2022-12-04T17:43:52;20.20;47.70
3246;DHT22;1635;48.000;10.582;2022-12-04T17:46:21;20.20;47.70
3246;DHT22;1635;48.000;10.582;2022-12-04T17:48:49;20.10;48.00
3246;DHT22;1635;48.000;10.582;2022-12-04T17:51:21;20.10;47.60
3246;DHT22;1635;48.000;10.582;2022-12-04T17:53:49;20.10;47.80
3246;DHT22;1635;48.000;10.582;2022-12-04T17:56:21;20.10;47.50